AAL2687 KDCA-KCLT
Flight info
| Callsign | AAL2687 |
|---|---|
| Flight time | 0h 55m |
| Altitude | 36000 |
| Route | SCRAM6 GLANC AIROW CHSLY6 |
| Aircraft | A320/M-SDE3FGHIRWY/LB1 |
Departure
| Time | 2026-05-04 20:36 |
|---|---|
| Airport | Ronald Reagan Washington National Airport (KDCA) |
Arrival
| Time | 2026-05-04 21:31 |
|---|---|
| Airport | Charlotte Douglas International Airport (KCLT) |
| Time | Latitude | Longitude | Altitude | Speed | Heading |
|---|---|---|---|---|---|
| 2026-05-04 20:03 | 38.85442 | -77.04239 | 27 ft | 0 kts | 168° |
| 2026-05-04 20:27 | 38.85462 | -77.04245 | 27 ft | 4 kts | 158° |
| 2026-05-04 20:27 | 38.85483 | -77.04263 | 27 ft | 4 kts | 122° |
| 2026-05-04 20:27 | 38.85488 | -77.04285 | 27 ft | 1 kts | 71° |
| 2026-05-04 20:31 | 38.85491 | -77.04272 | 27 ft | 7 kts | 71° |
| 2026-05-04 20:32 | 38.85513 | -77.04184 | 26 ft | 11 kts | 72° |
| 2026-05-04 20:32 | 38.85536 | -77.04092 | 26 ft | 10 kts | 72° |
| 2026-05-04 20:32 | 38.85556 | -77.04009 | 26 ft | 9 kts | 73° |
| 2026-05-04 20:32 | 38.85592 | -77.03968 | 27 ft | 6 kts | 27° |
| 2026-05-04 20:33 | 38.85631 | -77.03965 | 27 ft | 7 kts | 355° |
| 2026-05-04 20:33 | 38.85683 | -77.03970 | 28 ft | 9 kts | 355° |
| 2026-05-04 20:33 | 38.85750 | -77.03977 | 28 ft | 12 kts | 355° |
| 2026-05-04 20:33 | 38.85828 | -77.03985 | 28 ft | 11 kts | 355° |
| 2026-05-04 20:34 | 38.85902 | -77.03993 | 27 ft | 10 kts | 355° |
| 2026-05-04 20:34 | 38.85972 | -77.03992 | 26 ft | 10 kts | 3° |
| 2026-05-04 20:34 | 38.86035 | -77.03976 | 27 ft | 9 kts | 21° |
| 2026-05-04 20:34 | 38.86085 | -77.03916 | 23 ft | 12 kts | 71° |
| 2026-05-04 20:35 | 38.86036 | -77.03868 | 24 ft | 12 kts | 172° |
| 2026-05-04 20:35 | 38.85757 | -77.03836 | 30 ft | 75 kts | 176° |
| 2026-05-04 20:35 | 38.85039 | -77.03766 | 25 ft | 129 kts | 176° |
| 2026-05-04 20:35 | 38.84010 | -77.03665 | 162 ft | 159 kts | 178° |
| 2026-05-04 20:36 | 38.82874 | -77.03579 | 567 ft | 175 kts | 179° |
| 2026-05-04 20:36 | 38.81559 | -77.03537 | 887 ft | 202 kts | 181° |
| 2026-05-04 20:36 | 38.80090 | -77.03526 | 1339 ft | 226 kts | 182° |
| 2026-05-04 20:36 | 38.78446 | -77.03518 | 1925 ft | 242 kts | 183° |
| 2026-05-04 20:37 | 38.76739 | -77.03542 | 2804 ft | 248 kts | 189° |
| 2026-05-04 20:37 | 38.75158 | -77.04418 | 3656 ft | 250 kts | 224° |
| 2026-05-04 20:37 | 38.74297 | -77.06344 | 4575 ft | 255 kts | 255° |
| 2026-05-04 20:37 | 38.74073 | -77.08576 | 5534 ft | 258 kts | 266° |
| 2026-05-04 20:38 | 38.74074 | -77.10865 | 6548 ft | 257 kts | 270° |
| 2026-05-04 20:38 | 38.74002 | -77.13161 | 7447 ft | 259 kts | 260° |
| 2026-05-04 20:38 | 38.73494 | -77.15387 | 8304 ft | 263 kts | 250° |
| 2026-05-04 20:38 | 38.72785 | -77.17552 | 9204 ft | 265 kts | 247° |
| 2026-05-04 20:39 | 38.72001 | -77.19707 | 10070 ft | 268 kts | 246° |
| 2026-05-04 20:39 | 38.71153 | -77.21927 | 10465 ft | 289 kts | 243° |
| 2026-05-04 20:39 | 38.69981 | -77.24150 | 10776 ft | 311 kts | 236° |
| 2026-05-04 20:39 | 38.68682 | -77.26411 | 11407 ft | 318 kts | 236° |
| 2026-05-04 20:40 | 38.67376 | -77.28720 | 12171 ft | 322 kts | 237° |
| 2026-05-04 20:40 | 38.66060 | -77.31065 | 12966 ft | 326 kts | 237° |
| 2026-05-04 20:40 | 38.64732 | -77.33442 | 13700 ft | 330 kts | 237° |
| 2026-05-04 20:40 | 38.63388 | -77.35846 | 14367 ft | 334 kts | 237° |
| 2026-05-04 20:41 | 38.62027 | -77.38274 | 15018 ft | 338 kts | 237° |
| 2026-05-04 20:41 | 38.60647 | -77.40728 | 15666 ft | 341 kts | 237° |
| 2026-05-04 20:41 | 38.59254 | -77.43204 | 16306 ft | 345 kts | 237° |
| 2026-05-04 20:41 | 38.57844 | -77.45712 | 16933 ft | 349 kts | 237° |
| 2026-05-04 20:42 | 38.56418 | -77.48246 | 17565 ft | 353 kts | 237° |
| 2026-05-04 20:42 | 38.54976 | -77.50807 | 18169 ft | 357 kts | 237° |
| 2026-05-04 20:42 | 38.53517 | -77.53394 | 18709 ft | 361 kts | 237° |
| 2026-05-04 20:42 | 38.52061 | -77.55970 | 19255 ft | 364 kts | 237° |
| 2026-05-04 20:43 | 38.50572 | -77.58602 | 19818 ft | 367 kts | 237° |
| 2026-05-04 20:43 | 38.49075 | -77.61246 | 20399 ft | 370 kts | 237° |
| 2026-05-04 20:43 | 38.47558 | -77.63920 | 20975 ft | 372 kts | 237° |
| 2026-05-04 20:43 | 38.46036 | -77.66602 | 21529 ft | 375 kts | 237° |
| 2026-05-04 20:44 | 38.44378 | -77.69202 | 22100 ft | 380 kts | 232° |
| 2026-05-04 20:44 | 38.42636 | -77.71756 | 22641 ft | 383 kts | 232° |
| 2026-05-04 20:44 | 38.40879 | -77.74330 | 23162 ft | 386 kts | 233° |
| 2026-05-04 20:44 | 38.39108 | -77.76925 | 23645 ft | 389 kts | 233° |
| 2026-05-04 20:45 | 38.37327 | -77.79536 | 24096 ft | 391 kts | 233° |
| 2026-05-04 20:45 | 38.35549 | -77.82172 | 24530 ft | 393 kts | 234° |
| 2026-05-04 20:45 | 38.33793 | -77.84849 | 24961 ft | 394 kts | 234° |
| 2026-05-04 20:45 | 38.32046 | -77.87553 | 25378 ft | 396 kts | 235° |
| 2026-05-04 20:46 | 38.30300 | -77.90275 | 25795 ft | 398 kts | 235° |
| 2026-05-04 20:46 | 38.28545 | -77.93005 | 26202 ft | 399 kts | 235° |
| 2026-05-04 20:46 | 38.26776 | -77.95739 | 26590 ft | 401 kts | 235° |
| 2026-05-04 20:46 | 38.24994 | -77.98477 | 27002 ft | 402 kts | 235° |
| 2026-05-04 20:47 | 38.23811 | -78.00289 | 27254 ft | 404 kts | 235° |
| 2026-05-04 20:47 | 38.22012 | -78.03042 | 27623 ft | 406 kts | 235° |
| 2026-05-04 20:47 | 38.20198 | -78.05807 | 27973 ft | 408 kts | 235° |
| 2026-05-04 20:47 | 38.18373 | -78.08587 | 28307 ft | 411 kts | 235° |
| 2026-05-04 20:48 | 38.16537 | -78.11382 | 28629 ft | 413 kts | 235° |
| 2026-05-04 20:48 | 38.14691 | -78.14192 | 28965 ft | 415 kts | 235° |
| 2026-05-04 20:48 | 38.12232 | -78.17936 | 29376 ft | 418 kts | 235° |
| 2026-05-04 20:48 | 38.10967 | -78.19858 | 29586 ft | 420 kts | 235° |
| 2026-05-04 20:49 | 38.09092 | -78.22706 | 29880 ft | 422 kts | 235° |
| 2026-05-04 20:49 | 38.07205 | -78.25574 | 30141 ft | 424 kts | 235° |
| 2026-05-04 20:49 | 38.05321 | -78.28469 | 30350 ft | 426 kts | 236° |
| 2026-05-04 20:49 | 38.03444 | -78.31393 | 30595 ft | 428 kts | 236° |
| 2026-05-04 20:50 | 38.01570 | -78.34334 | 30841 ft | 429 kts | 236° |
| 2026-05-04 20:50 | 37.99695 | -78.37283 | 31090 ft | 430 kts | 236° |
| 2026-05-04 20:50 | 37.97816 | -78.40224 | 31415 ft | 428 kts | 236° |
| 2026-05-04 20:50 | 37.95965 | -78.43108 | 31772 ft | 426 kts | 236° |
| 2026-05-04 20:51 | 37.94092 | -78.46012 | 32115 ft | 425 kts | 236° |
| 2026-05-04 20:51 | 37.92224 | -78.48900 | 32465 ft | 423 kts | 236° |
| 2026-05-04 20:51 | 37.90366 | -78.51775 | 32817 ft | 421 kts | 236° |
| 2026-05-04 20:51 | 37.88520 | -78.54640 | 33175 ft | 419 kts | 236° |
| 2026-05-04 20:52 | 37.86687 | -78.57485 | 33529 ft | 417 kts | 236° |
| 2026-05-04 20:52 | 37.84851 | -78.60329 | 33883 ft | 415 kts | 235° |
| 2026-05-04 20:52 | 37.83028 | -78.63144 | 34184 ft | 414 kts | 235° |
| 2026-05-04 20:52 | 37.81202 | -78.65959 | 34451 ft | 414 kts | 235° |
| 2026-05-04 20:53 | 37.79376 | -78.68771 | 34698 ft | 414 kts | 235° |
| 2026-05-04 20:53 | 37.77548 | -78.71588 | 34896 ft | 415 kts | 235° |
| 2026-05-04 20:53 | 37.75715 | -78.74411 | 35087 ft | 416 kts | 235° |
| 2026-05-04 20:53 | 37.73878 | -78.77239 | 35270 ft | 417 kts | 235° |
| 2026-05-04 20:54 | 37.71901 | -78.79936 | 35481 ft | 421 kts | 227° |
| 2026-05-04 20:54 | 37.69606 | -78.82270 | 35699 ft | 425 kts | 221° |
| 2026-05-04 20:54 | 37.67225 | -78.84492 | 35890 ft | 426 kts | 221° |
| 2026-05-04 20:54 | 37.64843 | -78.86715 | 35949 ft | 424 kts | 221° |
| 2026-05-04 20:55 | 37.60122 | -78.91106 | 35975 ft | 420 kts | 221° |
| 2026-05-04 20:55 | 37.55423 | -78.95488 | 35976 ft | 420 kts | 222° |
| 2026-05-04 20:56 | 37.50731 | -78.99863 | 35978 ft | 419 kts | 221° |
| 2026-05-04 20:56 | 37.46032 | -79.04225 | 35980 ft | 420 kts | 221° |
| 2026-05-04 20:57 | 37.41308 | -79.08550 | 35961 ft | 420 kts | 221° |
| 2026-05-04 20:57 | 37.36531 | -79.12717 | 35966 ft | 421 kts | 220° |
| 2026-05-04 20:58 | 37.31667 | -79.16901 | 35967 ft | 421 kts | 220° |
| 2026-05-04 20:58 | 37.26890 | -79.21048 | 35970 ft | 421 kts | 220° |
| 2026-05-04 20:59 | 37.22095 | -79.25260 | 35946 ft | 420 kts | 221° |
| 2026-05-04 20:59 | 37.17367 | -79.29534 | 35999 ft | 418 kts | 222° |
| 2026-05-04 21:00 | 37.12677 | -79.33817 | 36006 ft | 416 kts | 222° |
| 2026-05-04 21:00 | 37.07982 | -79.38059 | 36006 ft | 416 kts | 222° |
| 2026-05-04 21:01 | 37.03287 | -79.42269 | 36009 ft | 415 kts | 221° |
| 2026-05-04 21:01 | 36.98559 | -79.46426 | 35976 ft | 416 kts | 220° |
| 2026-05-04 21:02 | 36.93756 | -79.50459 | 35989 ft | 416 kts | 220° |
| 2026-05-04 21:02 | 36.88945 | -79.54459 | 35991 ft | 415 kts | 220° |
| 2026-05-04 21:03 | 36.84156 | -79.58479 | 35992 ft | 415 kts | 220° |
| 2026-05-04 21:03 | 36.79373 | -79.62504 | 35992 ft | 414 kts | 220° |
| 2026-05-04 21:04 | 36.74593 | -79.66520 | 35968 ft | 414 kts | 220° |
| 2026-05-04 21:04 | 36.72202 | -79.68519 | 35723 ft | 416 kts | 220° |
| 2026-05-04 21:04 | 36.69803 | -79.70526 | 34592 ft | 415 kts | 220° |
| 2026-05-04 21:05 | 36.67402 | -79.72535 | 33399 ft | 414 kts | 220° |
| 2026-05-04 21:05 | 36.65045 | -79.74502 | 32760 ft | 411 kts | 220° |
| 2026-05-04 21:05 | 36.62686 | -79.76467 | 32259 ft | 405 kts | 220° |
| 2026-05-04 21:05 | 36.60352 | -79.78409 | 31716 ft | 401 kts | 220° |
| 2026-05-04 21:06 | 36.58041 | -79.80335 | 31184 ft | 398 kts | 220° |
| 2026-05-04 21:06 | 36.55743 | -79.82247 | 30631 ft | 396 kts | 220° |
| 2026-05-04 21:06 | 36.53461 | -79.84146 | 30108 ft | 393 kts | 220° |
| 2026-05-04 21:06 | 36.51170 | -79.86051 | 29526 ft | 390 kts | 220° |
| 2026-05-04 21:07 | 36.48925 | -79.87916 | 28983 ft | 386 kts | 220° |
| 2026-05-04 21:07 | 36.46729 | -79.89741 | 28441 ft | 383 kts | 220° |
| 2026-05-04 21:07 | 36.44521 | -79.91577 | 27917 ft | 381 kts | 220° |
| 2026-05-04 21:07 | 36.42326 | -79.93400 | 27376 ft | 378 kts | 220° |
| 2026-05-04 21:08 | 36.40144 | -79.95210 | 26860 ft | 376 kts | 219° |
| 2026-05-04 21:08 | 36.37971 | -79.97010 | 26339 ft | 375 kts | 219° |
| 2026-05-04 21:08 | 36.35807 | -79.98800 | 25831 ft | 373 kts | 219° |
| 2026-05-04 21:08 | 36.33650 | -80.00581 | 25341 ft | 372 kts | 219° |
| 2026-05-04 21:09 | 36.31502 | -80.02355 | 24847 ft | 370 kts | 218° |
| 2026-05-04 21:09 | 36.29373 | -80.04113 | 24381 ft | 368 kts | 218° |
| 2026-05-04 21:09 | 36.27249 | -80.05867 | 23905 ft | 366 kts | 218° |
| 2026-05-04 21:09 | 36.25132 | -80.07613 | 23400 ft | 365 kts | 218° |
| 2026-05-04 21:10 | 36.23025 | -80.09347 | 22892 ft | 362 kts | 218° |
| 2026-05-04 21:10 | 36.20937 | -80.11065 | 22425 ft | 359 kts | 218° |
| 2026-05-04 21:10 | 36.18865 | -80.12770 | 21956 ft | 356 kts | 218° |
| 2026-05-04 21:10 | 36.16806 | -80.14462 | 21485 ft | 354 kts | 218° |
| 2026-05-04 21:11 | 36.14758 | -80.16142 | 21002 ft | 352 kts | 218° |
| 2026-05-04 21:11 | 36.12719 | -80.17814 | 20523 ft | 351 kts | 218° |
| 2026-05-04 21:11 | 36.10689 | -80.19481 | 20023 ft | 350 kts | 218° |
| 2026-05-04 21:11 | 36.08663 | -80.21143 | 19538 ft | 349 kts | 218° |
| 2026-05-04 21:12 | 36.06642 | -80.22802 | 19055 ft | 349 kts | 218° |
| 2026-05-04 21:12 | 36.04621 | -80.24460 | 18570 ft | 349 kts | 218° |
| 2026-05-04 21:12 | 36.02599 | -80.26120 | 18049 ft | 349 kts | 218° |
| 2026-05-04 21:12 | 36.00585 | -80.27770 | 17550 ft | 348 kts | 218° |
| 2026-05-04 21:13 | 35.98567 | -80.29418 | 17015 ft | 347 kts | 218° |
| 2026-05-04 21:13 | 35.96567 | -80.31051 | 16687 ft | 342 kts | 218° |
| 2026-05-04 21:13 | 35.94609 | -80.32651 | 16222 ft | 341 kts | 218° |
| 2026-05-04 21:13 | 35.92645 | -80.34254 | 15705 ft | 337 kts | 218° |
| 2026-05-04 21:14 | 35.90713 | -80.35824 | 15180 ft | 326 kts | 218° |
| 2026-05-04 21:14 | 35.88841 | -80.37341 | 14740 ft | 321 kts | 218° |
| 2026-05-04 21:14 | 35.86979 | -80.38858 | 14362 ft | 319 kts | 218° |
| 2026-05-04 21:14 | 35.85155 | -80.40338 | 14228 ft | 309 kts | 218° |
| 2026-05-04 21:15 | 35.83379 | -80.41780 | 14045 ft | 302 kts | 219° |
| 2026-05-04 21:15 | 35.81672 | -80.43280 | 13753 ft | 302 kts | 221° |
| 2026-05-04 21:15 | 35.80018 | -80.44859 | 13360 ft | 300 kts | 223° |
| 2026-05-04 21:15 | 35.78398 | -80.46460 | 12976 ft | 299 kts | 224° |
| 2026-05-04 21:16 | 35.76784 | -80.48065 | 12663 ft | 296 kts | 223° |
| 2026-05-04 21:16 | 35.75150 | -80.49593 | 12110 ft | 295 kts | 216° |
| 2026-05-04 21:16 | 35.73300 | -80.50644 | 11692 ft | 295 kts | 202° |
| 2026-05-04 21:16 | 35.71340 | -80.51402 | 11274 ft | 294 kts | 202° |
| 2026-05-04 21:17 | 35.69402 | -80.52151 | 10852 ft | 291 kts | 202° |
| 2026-05-04 21:17 | 35.67475 | -80.52893 | 10412 ft | 289 kts | 202° |
| 2026-05-04 21:17 | 35.65560 | -80.53631 | 10004 ft | 289 kts | 202° |
| 2026-05-04 21:17 | 35.63642 | -80.54371 | 9581 ft | 288 kts | 201° |
| 2026-05-04 21:18 | 35.61736 | -80.55104 | 9203 ft | 286 kts | 201° |
| 2026-05-04 21:18 | 35.59870 | -80.55805 | 9070 ft | 276 kts | 198° |
| 2026-05-04 21:18 | 35.57919 | -80.55893 | 8943 ft | 289 kts | 172° |
| 2026-05-04 21:18 | 35.55987 | -80.55177 | 8909 ft | 288 kts | 171° |
| 2026-05-04 21:19 | 35.54002 | -80.54967 | 9172 ft | 286 kts | 189° |
| 2026-05-04 21:19 | 35.52104 | -80.55554 | 9375 ft | 280 kts | 209° |
| 2026-05-04 21:19 | 35.50451 | -80.56796 | 9384 ft | 279 kts | 216° |
| 2026-05-04 21:19 | 35.48861 | -80.58130 | 9256 ft | 275 kts | 224° |
| 2026-05-04 21:20 | 35.47646 | -80.59894 | 9151 ft | 269 kts | 243° |
| 2026-05-04 21:20 | 35.46938 | -80.62015 | 8733 ft | 272 kts | 261° |
| 2026-05-04 21:20 | 35.46814 | -80.64293 | 8296 ft | 260 kts | 266° |
| 2026-05-04 21:20 | 35.46584 | -80.66524 | 7738 ft | 264 kts | 262° |
| 2026-05-04 21:21 | 35.46307 | -80.68746 | 7201 ft | 264 kts | 262° |
| 2026-05-04 21:21 | 35.46028 | -80.70966 | 6670 ft | 263 kts | 262° |
| 2026-05-04 21:21 | 35.45749 | -80.73167 | 6127 ft | 260 kts | 261° |
| 2026-05-04 21:21 | 35.45491 | -80.75358 | 5569 ft | 260 kts | 261° |
| 2026-05-04 21:22 | 35.45267 | -80.77558 | 5019 ft | 259 kts | 262° |
| 2026-05-04 21:22 | 35.45076 | -80.79769 | 4470 ft | 261 kts | 262° |
| 2026-05-04 21:22 | 35.44902 | -80.81980 | 4070 ft | 260 kts | 262° |
| 2026-05-04 21:22 | 35.44737 | -80.84171 | 3985 ft | 248 kts | 262° |
| 2026-05-04 21:23 | 35.44589 | -80.86159 | 3996 ft | 221 kts | 261° |
| 2026-05-04 21:23 | 35.44470 | -80.87942 | 3993 ft | 201 kts | 262° |
| 2026-05-04 21:23 | 35.44374 | -80.89555 | 4019 ft | 179 kts | 262° |
| 2026-05-04 21:23 | 35.44302 | -80.90972 | 3993 ft | 158 kts | 262° |
| 2026-05-04 21:24 | 35.44251 | -80.92226 | 3989 ft | 141 kts | 262° |
| 2026-05-04 21:24 | 35.44148 | -80.93420 | 3968 ft | 139 kts | 253° |
| 2026-05-04 21:24 | 35.43789 | -80.94486 | 3935 ft | 136 kts | 235° |
| 2026-05-04 21:24 | 35.43175 | -80.95359 | 4020 ft | 136 kts | 217° |
| 2026-05-04 21:25 | 35.42313 | -80.95840 | 4087 ft | 140 kts | 189° |
| 2026-05-04 21:25 | 35.41342 | -80.95776 | 4096 ft | 139 kts | 176° |
| 2026-05-04 21:25 | 35.40390 | -80.95607 | 4111 ft | 138 kts | 173° |
| 2026-05-04 21:25 | 35.39457 | -80.95332 | 4120 ft | 138 kts | 168° |
| 2026-05-04 21:26 | 35.38536 | -80.95035 | 4097 ft | 139 kts | 168° |
| 2026-05-04 21:26 | 35.37589 | -80.94823 | 3934 ft | 138 kts | 177° |
| 2026-05-04 21:26 | 35.36639 | -80.94765 | 3738 ft | 136 kts | 180° |
| 2026-05-04 21:26 | 35.35686 | -80.94712 | 3541 ft | 138 kts | 180° |
| 2026-05-04 21:27 | 35.34728 | -80.94650 | 3233 ft | 137 kts | 179° |
| 2026-05-04 21:27 | 35.33789 | -80.94579 | 3006 ft | 135 kts | 179° |
| 2026-05-04 21:27 | 35.32846 | -80.94503 | 2819 ft | 137 kts | 179° |
| 2026-05-04 21:27 | 35.31894 | -80.94424 | 2612 ft | 137 kts | 178° |
| 2026-05-04 21:28 | 35.30950 | -80.94344 | 2431 ft | 136 kts | 178° |
| 2026-05-04 21:28 | 35.30012 | -80.94264 | 2252 ft | 134 kts | 177° |
| 2026-05-04 21:28 | 35.29067 | -80.94183 | 2074 ft | 137 kts | 176° |
| 2026-05-04 21:28 | 35.28127 | -80.94102 | 1912 ft | 133 kts | 177° |
| 2026-05-04 21:29 | 35.27187 | -80.94021 | 1729 ft | 136 kts | 177° |
| 2026-05-04 21:29 | 35.26232 | -80.93939 | 1517 ft | 136 kts | 180° |
| 2026-05-04 21:29 | 35.25299 | -80.93859 | 1345 ft | 134 kts | 179° |
| 2026-05-04 21:29 | 35.24380 | -80.93781 | 1164 ft | 134 kts | 182° |
| 2026-05-04 21:30 | 35.23447 | -80.93700 | 998 ft | 133 kts | 179° |
| 2026-05-04 21:30 | 35.22512 | -80.93624 | 793 ft | 135 kts | 180° |
| 2026-05-04 21:30 | 35.21605 | -80.93546 | 724 ft | 118 kts | 175° |
| 2026-05-04 21:30 | 35.20965 | -80.93488 | 720 ft | 67 kts | 175° |
| 2026-05-04 21:31 | 35.20522 | -80.93517 | 715 ft | 25 kts | 212° |
| 2026-05-04 21:31 | 35.20506 | -80.93569 | 714 ft | 0 kts | 327° |
| 2026-05-04 21:33 | 35.20515 | -80.93575 | 717 ft | 8 kts | 328° |
| 2026-05-04 21:34 | 35.20600 | -80.93590 | 717 ft | 17 kts | 359° |
| 2026-05-04 21:34 | 35.20714 | -80.93600 | 716 ft | 15 kts | 356° |
| 2026-05-04 21:34 | 35.20819 | -80.93609 | 719 ft | 15 kts | 356° |
| 2026-05-04 21:34 | 35.20916 | -80.93618 | 718 ft | 13 kts | 356° |
| 2026-05-04 21:35 | 35.20999 | -80.93625 | 722 ft | 11 kts | 355° |
| 2026-05-04 21:35 | 35.21081 | -80.93632 | 719 ft | 15 kts | 356° |
| 2026-05-04 21:35 | 35.21181 | -80.93639 | 721 ft | 13 kts | 356° |
| 2026-05-04 21:35 | 35.21267 | -80.93647 | 720 ft | 11 kts | 355° |
| 2026-05-04 21:36 | 35.21351 | -80.93653 | 723 ft | 13 kts | 356° |
| 2026-05-04 21:36 | 35.21437 | -80.93661 | 722 ft | 13 kts | 355° |
| 2026-05-04 21:36 | 35.21500 | -80.93667 | 724 ft | 8 kts | 355° |
| 2026-05-04 21:36 | 35.21570 | -80.93687 | 724 ft | 11 kts | 327° |
| 2026-05-04 21:37 | 35.21641 | -80.93783 | 724 ft | 20 kts | 311° |
| 2026-05-04 21:37 | 35.21733 | -80.93903 | 726 ft | 12 kts | 319° |